sensor_id;sensor_type;location;lat;lon;timestamp;temperature;humidity
15564;DHT22;7883;52.554;13.364;2023-02-26T00:00:09;0.50;99.90
15564;DHT22;7883;52.554;13.364;2023-02-26T00:02:39;0.50;99.90
15564;DHT22;7883;52.554;13.364;2023-02-26T00:05:08;0.50;99.90
15564;DHT22;7883;52.554;13.364;2023-02-26T00:07:35;0.50;99.90
15564;DHT22;7883;52.554;13.364;2023-02-26T00:10:03;0.50;99.90
15564;DHT22;7883;52.554;13.364;2023-02-26T00:12:31;0.50;99.90
15564;DHT22;7883;52.554;13.364;2023-02-26T00:14:59;0.50;99.90
15564;DHT22;7883;52.554;13.364;2023-02-26T00:17:40;0.50;99.90
15564;DHT22;7883;52.554;13.364;2023-02-26T00:20:12;0.50;99.90
15564;DHT22;7883;52.554;13.364;2023-02-26T00:22:41;0.50;99.90
15564;DHT22;7883;52.554;13.364;2023-02-26T00:25:09;0.50;99.90
15564;DHT22;7883;52.554;13.364;2023-02-26T00:27:37;0.50;99.90
15564;DHT22;7883;52.554;13.364;2023-02-26T00:30:06;0.60;99.90
15564;DHT22;7883;52.554;13.364;2023-02-26T00:32:34;0.50;99.90
15564;DHT22;7883;52.554;13.364;2023-02-26T00:35:01;0.50;99.90
15564;DHT22;7883;52.554;13.364;2023-02-26T00:37:37;0.50;99.90
15564;DHT22;7883;52.554;13.364;2023-02-26T00:40:18;0.60;99.90
15564;DHT22;7883;52.554;13.364;2023-02-26T00:42:47;0.60;99.90
15564;DHT22;7883;52.554;13.364;2023-02-26T00:45:15;0.60;99.90
15564;DHT22;7883;52.554;13.364;2023-02-26T00:47:47;0.60;99.90
15564;DHT22;7883;52.554;13.364;2023-02-26T00:50:17;0.60;99.90
15564;DHT22;7883;52.554;13.364;2023-02-26T00:53:01;0.60;99.90
15564;DHT22;7883;52.554;13.364;2023-02-26T00:55:29;0.60;99.90
15564;DHT22;7883;52.554;13.364;2023-02-26T00:57:56;0.60;99.90
15564;DHT22;7883;52.554;13.364;2023-02-26T01:00:24;0.60;99.90
15564;DHT22;7883;52.554;13.364;2023-02-26T01:02:51;0.70;99.90
15564;DHT22;7883;52.554;13.364;2023-02-26T01:05:19;0.60;99.90
15564;DHT22;7883;52.554;13.364;2023-02-26T01:07:53;0.60;99.90
15564;DHT22;7883;52.554;13.364;2023-02-26T01:10:23;0.70;99.90
15564;DHT22;7883;52.554;13.364;2023-02-26T01:12:50;0.70;99.90
15564;DHT22;7883;52.554;13.364;2023-02-26T01:15:18;0.70;99.90
15564;DHT22;7883;52.554;13.364;2023-02-26T01:17:48;0.70;99.90
15564;DHT22;7883;52.554;13.364;2023-02-26T01:20:18;0.70;99.90
15564;DHT22;7883;52.554;13.364;2023-02-26T01:22:53;0.70;99.90
15564;DHT22;7883;52.554;13.364;2023-02-26T01:25:24;0.70;99.90
15564;DHT22;7883;52.554;13.364;2023-02-26T01:27:53;0.70;99.90
15564;DHT22;7883;52.554;13.364;2023-02-26T01:30:22;0.70;99.90
15564;DHT22;7883;52.554;13.364;2023-02-26T01:32:56;0.80;99.90
15564;DHT22;7883;52.554;13.364;2023-02-26T01:35:36;0.80;99.90
15564;DHT22;7883;52.554;13.364;2023-02-26T01:38:19;0.80;99.90
15564;DHT22;7883;52.554;13.364;2023-02-26T01:41:22;0.80;99.90
15564;DHT22;7883;52.554;13.364;2023-02-26T01:44:01;0.80;99.90
15564;DHT22;7883;52.554;13.364;2023-02-26T01:46:34;0.80;99.90
15564;DHT22;7883;52.554;13.364;2023-02-26T01:49:03;0.80;99.90
15564;DHT22;7883;52.554;13.364;2023-02-26T01:51:41;0.80;99.90
15564;DHT22;7883;52.554;13.364;2023-02-26T01:54:10;0.80;99.90
15564;DHT22;7883;52.554;13.364;2023-02-26T01:56:37;0.80;99.90
15564;DHT22;7883;52.554;13.364;2023-02-26T01:59:06;0.80;99.90
15564;DHT22;7883;52.554;13.364;2023-02-26T02:01:35;0.80;99.90
15564;DHT22;7883;52.554;13.364;2023-02-26T02:04:04;0.70;99.90
15564;DHT22;7883;52.554;13.364;2023-02-26T02:06:32;0.80;99.90
15564;DHT22;7883;52.554;13.364;2023-02-26T02:08:59;0.80;99.90
15564;DHT22;7883;52.554;13.364;2023-02-26T02:11:29;0.80;99.90
15564;DHT22;7883;52.554;13.364;2023-02-26T02:14:06;0.90;99.90
15564;DHT22;7883;52.554;13.364;2023-02-26T02:16:41;0.80;99.90
15564;DHT22;7883;52.554;13.364;2023-02-26T02:19:36;0.90;99.90
15564;DHT22;7883;52.554;13.364;2023-02-26T02:25:19;0.80;99.90
15564;DHT22;7883;52.554;13.364;2023-02-26T02:27:59;0.80;99.90
15564;DHT22;7883;52.554;13.364;2023-02-26T02:30:36;0.90;99.90
15564;DHT22;7883;52.554;13.364;2023-02-26T02:33:10;0.80;99.90
15564;DHT22;7883;52.554;13.364;2023-02-26T02:35:40;0.80;99.90
15564;DHT22;7883;52.554;13.364;2023-02-26T02:38:12;0.90;99.90
15564;DHT22;7883;52.554;13.364;2023-02-26T02:40:43;0.90;99.90
15564;DHT22;7883;52.554;13.364;2023-02-26T02:43:14;0.90;99.90
15564;DHT22;7883;52.554;13.364;2023-02-26T02:45:44;0.90;99.90
15564;DHT22;7883;52.554;13.364;2023-02-26T02:48:21;0.90;99.90
15564;DHT22;7883;52.554;13.364;2023-02-26T02:50:54;0.90;99.90
15564;DHT22;7883;52.554;13.364;2023-02-26T02:53:25;0.90;99.90
15564;DHT22;7883;52.554;13.364;2023-02-26T02:55:57;0.90;99.90
15564;DHT22;7883;52.554;13.364;2023-02-26T02:58:30;0.90;99.90
15564;DHT22;7883;52.554;13.364;2023-02-26T03:01:02;0.80;99.90
15564;DHT22;7883;52.554;13.364;2023-02-26T03:03:35;0.90;99.90
15564;DHT22;7883;52.554;13.364;2023-02-26T03:06:05;0.80;99.90
15564;DHT22;7883;52.554;13.364;2023-02-26T03:08:35;0.80;99.90
15564;DHT22;7883;52.554;13.364;2023-02-26T03:11:03;0.80;99.90
15564;DHT22;7883;52.554;13.364;2023-02-26T03:13:30;0.80;99.90
15564;DHT22;7883;52.554;13.364;2023-02-26T03:16:07;0.80;99.90
15564;DHT22;7883;52.554;13.364;2023-02-26T03:18:49;0.80;99.90
15564;DHT22;7883;52.554;13.364;2023-02-26T03:21:22;0.70;99.90
15564;DHT22;7883;52.554;13.364;2023-02-26T03:23:56;0.70;99.90
15564;DHT22;7883;52.554;13.364;2023-02-26T03:26:30;0.80;99.90
15564;DHT22;7883;52.554;13.364;2023-02-26T03:29:01;0.80;99.90
15564;DHT22;7883;52.554;13.364;2023-02-26T03:31:34;0.80;99.90
15564;DHT22;7883;52.554;13.364;2023-02-26T03:34:07;0.80;99.90
15564;DHT22;7883;52.554;13.364;2023-02-26T03:36:41;0.70;99.90
15564;DHT22;7883;52.554;13.364;2023-02-26T03:39:13;0.80;99.90
15564;DHT22;7883;52.554;13.364;2023-02-26T03:41:44;0.80;99.90
15564;DHT22;7883;52.554;13.364;2023-02-26T03:44:17;0.70;99.90
15564;DHT22;7883;52.554;13.364;2023-02-26T03:46:50;0.80;99.90
15564;DHT22;7883;52.554;13.364;2023-02-26T03:49:22;0.80;99.90
15564;DHT22;7883;52.554;13.364;2023-02-26T03:51:51;0.80;99.90
15564;DHT22;7883;52.554;13.364;2023-02-26T03:54:21;0.70;99.90
15564;DHT22;7883;52.554;13.364;2023-02-26T03:56:53;0.70;99.90
15564;DHT22;7883;52.554;13.364;2023-02-26T03:59:20;0.80;99.90
15564;DHT22;7883;52.554;13.364;2023-02-26T04:01:57;0.80;99.90
15564;DHT22;7883;52.554;13.364;2023-02-26T04:04:32;0.70;99.90
15564;DHT22;7883;52.554;13.364;2023-02-26T04:07:00;0.80;99.90
15564;DHT22;7883;52.554;13.364;2023-02-26T04:09:28;0.80;99.90
15564;DHT22;7883;52.554;13.364;2023-02-26T04:11:56;0.80;99.90
15564;DHT22;7883;52.554;13.364;2023-02-26T04:14:24;0.80;99.90
15564;DHT22;7883;52.554;13.364;2023-02-26T04:16:50;0.80;99.90
15564;DHT22;7883;52.554;13.364;2023-02-26T04:19:17;0.80;99.90
15564;DHT22;7883;52.554;13.364;2023-02-26T04:21:46;0.90;99.90
15564;DHT22;7883;52.554;13.364;2023-02-26T04:24:13;0.80;99.90
15564;DHT22;7883;52.554;13.364;2023-02-26T04:26:40;0.90;99.90
15564;DHT22;7883;52.554;13.364;2023-02-26T04:29:06;0.80;99.90
15564;DHT22;7883;52.554;13.364;2023-02-26T04:31:33;0.80;99.90
15564;DHT22;7883;52.554;13.364;2023-02-26T04:34:02;0.80;99.90
15564;DHT22;7883;52.554;13.364;2023-02-26T04:36:29;0.90;99.90
15564;DHT22;7883;52.554;13.364;2023-02-26T04:38:57;0.90;99.90
15564;DHT22;7883;52.554;13.364;2023-02-26T04:41:24;0.90;99.90
15564;DHT22;7883;52.554;13.364;2023-02-26T04:43:51;0.90;99.90
15564;DHT22;7883;52.554;13.364;2023-02-26T04:46:18;0.90;99.90
15564;DHT22;7883;52.554;13.364;2023-02-26T04:48:45;0.90;99.90
15564;DHT22;7883;52.554;13.364;2023-02-26T04:51:12;0.90;99.90
15564;DHT22;7883;52.554;13.364;2023-02-26T04:53:39;0.90;99.90
15564;DHT22;7883;52.554;13.364;2023-02-26T04:56:07;0.90;99.90
15564;DHT22;7883;52.554;13.364;2023-02-26T04:58:34;0.90;99.90
15564;DHT22;7883;52.554;13.364;2023-02-26T05:01:01;0.90;99.90
15564;DHT22;7883;52.554;13.364;2023-02-26T05:03:28;0.90;99.90
15564;DHT22;7883;52.554;13.364;2023-02-26T05:05:55;0.90;99.90
15564;DHT22;7883;52.554;13.364;2023-02-26T05:08:22;1.00;99.90
15564;DHT22;7883;52.554;13.364;2023-02-26T05:10:50;1.00;99.90
15564;DHT22;7883;52.554;13.364;2023-02-26T05:13:20;1.00;99.90
15564;DHT22;7883;52.554;13.364;2023-02-26T05:15:47;1.00;99.90
15564;DHT22;7883;52.554;13.364;2023-02-26T05:18:14;1.00;99.90
15564;DHT22;7883;52.554;13.364;2023-02-26T05:20:41;1.00;99.90
15564;DHT22;7883;52.554;13.364;2023-02-26T05:23:08;1.00;99.90
15564;DHT22;7883;52.554;13.364;2023-02-26T05:25:34;1.00;99.90
15564;DHT22;7883;52.554;13.364;2023-02-26T05:28:01;1.00;99.90
15564;DHT22;7883;52.554;13.364;2023-02-26T05:30:30;1.00;99.90
15564;DHT22;7883;52.554;13.364;2023-02-26T05:32:56;1.00;99.90
15564;DHT22;7883;52.554;13.364;2023-02-26T05:35:23;1.00;99.90
15564;DHT22;7883;52.554;13.364;2023-02-26T05:37:50;1.00;99.90
15564;DHT22;7883;52.554;13.364;2023-02-26T05:40:17;1.00;99.90
15564;DHT22;7883;52.554;13.364;2023-02-26T05:42:44;1.00;99.90
15564;DHT22;7883;52.554;13.364;2023-02-26T05:45:11;1.00;99.90
15564;DHT22;7883;52.554;13.364;2023-02-26T05:47:39;1.00;99.90
15564;DHT22;7883;52.554;13.364;2023-02-26T05:50:07;1.00;99.90
15564;DHT22;7883;52.554;13.364;2023-02-26T05:52:34;1.10;99.90
15564;DHT22;7883;52.554;13.364;2023-02-26T05:55:01;1.00;99.90
15564;DHT22;7883;52.554;13.364;2023-02-26T05:57:28;1.00;99.90
15564;DHT22;7883;52.554;13.364;2023-02-26T05:59:55;1.00;99.90
15564;DHT22;7883;52.554;13.364;2023-02-26T06:02:22;1.10;99.90
15564;DHT22;7883;52.554;13.364;2023-02-26T06:04:50;1.10;99.90
15564;DHT22;7883;52.554;13.364;2023-02-26T06:07:17;1.10;99.90
15564;DHT22;7883;52.554;13.364;2023-02-26T06:09:44;1.10;99.90
15564;DHT22;7883;52.554;13.364;2023-02-26T06:12:11;1.10;99.90
15564;DHT22;7883;52.554;13.364;2023-02-26T06:14:38;1.10;99.90
15564;DHT22;7883;52.554;13.364;2023-02-26T06:17:05;1.10;99.90
15564;DHT22;7883;52.554;13.364;2023-02-26T06:19:32;1.00;99.90
15564;DHT22;7883;52.554;13.364;2023-02-26T06:22:00;1.10;99.90
15564;DHT22;7883;52.554;13.364;2023-02-26T06:24:27;1.00;99.90
15564;DHT22;7883;52.554;13.364;2023-02-26T06:26:54;1.00;99.90
15564;DHT22;7883;52.554;13.364;2023-02-26T06:29:21;1.10;99.90
15564;DHT22;7883;52.554;13.364;2023-02-26T06:31:48;1.10;99.90
15564;DHT22;7883;52.554;13.364;2023-02-26T06:34:15;1.10;99.90
15564;DHT22;7883;52.554;13.364;2023-02-26T06:36:43;1.10;99.90
15564;DHT22;7883;52.554;13.364;2023-02-26T06:39:11;1.10;99.90
15564;DHT22;7883;52.554;13.364;2023-02-26T06:41:38;1.40;99.90
15564;DHT22;7883;52.554;13.364;2023-02-26T06:44:05;1.60;99.90
15564;DHT22;7883;52.554;13.364;2023-02-26T06:46:32;1.60;99.90
